createdAt,value
2022-12-26T00:00:16.868Z,59.42
2022-12-26T00:01:16.818Z,59.52
2022-12-26T00:02:16.818Z,59.42
2022-12-26T00:03:16.926Z,59.52
2022-12-26T00:04:50.678Z,59.42
2022-12-26T00:05:16.801Z,59.42
2022-12-26T00:06:16.769Z,59.52
2022-12-26T00:07:16.755Z,59.42
2022-12-26T00:08:16.741Z,59.42
2022-12-26T00:09:16.729Z,59.42
2022-12-26T00:10:16.761Z,59.62
2022-12-26T00:11:16.714Z,59.52
2022-12-26T00:12:16.692Z,59.52
2022-12-26T00:13:38.717Z,59.62
2022-12-26T00:14:16.689Z,59.52
2022-12-26T00:15:16.682Z,59.52
2022-12-26T00:16:16.695Z,59.82
2022-12-26T00:17:16.645Z,59.82
2022-12-26T00:18:16.633Z,59.72
2022-12-26T00:19:16.629Z,59.82
2022-12-26T00:20:16.618Z,59.82
2022-12-26T00:21:16.605Z,59.62
2022-12-26T00:22:16.625Z,59.72
2022-12-26T00:23:16.590Z,59.72
2022-12-26T00:24:16.574Z,59.72
2022-12-26T00:25:16.561Z,59.72
2022-12-26T00:26:16.546Z,59.82
2022-12-26T00:27:16.537Z,59.72
2022-12-26T00:28:16.550Z,59.82
2022-12-26T00:29:16.522Z,59.92
2022-12-26T00:30:16.509Z,59.72
2022-12-26T00:31:16.611Z,59.92
2022-12-26T00:32:16.485Z,59.82
2022-12-26T00:33:16.472Z,59.72
2022-12-26T00:34:16.504Z,59.62
2022-12-26T00:35:16.451Z,59.92
2022-12-26T00:36:16.447Z,59.84
2022-12-26T00:37:16.433Z,59.82
2022-12-26T00:38:16.422Z,59.72
2022-12-26T00:39:16.407Z,59.92
2022-12-26T00:40:16.449Z,59.72
2022-12-26T00:41:16.388Z,59.72
2022-12-26T00:42:16.372Z,59.84
2022-12-26T00:43:16.389Z,59.95
2022-12-26T00:44:16.356Z,59.75
2022-12-26T00:45:16.339Z,59.84
2022-12-26T00:46:16.409Z,59.84
2022-12-26T00:47:16.398Z,59.84
2022-12-26T00:48:16.305Z,59.75
2022-12-26T00:49:16.304Z,59.95
2022-12-26T00:50:16.363Z,59.95
2022-12-26T00:51:16.280Z,59.84
2022-12-26T00:52:16.304Z,59.84
2022-12-26T00:53:16.255Z,59.75
2022-12-26T00:54:16.244Z,59.84
2022-12-26T00:55:16.231Z,59.84
2022-12-26T00:56:16.240Z,59.64
2022-12-26T00:57:16.212Z,59.84
2022-12-26T00:58:16.235Z,59.75
2022-12-26T00:59:16.187Z,59.84
2022-12-26T01:00:16.183Z,59.75
2022-12-26T01:01:16.337Z,59.82
2022-12-26T01:02:16.297Z,59.75
2022-12-26T01:03:16.233Z,59.95
2022-12-26T01:04:16.179Z,60.05
2022-12-26T01:05:16.128Z,59.95
2022-12-26T01:06:16.111Z,59.84
2022-12-26T01:07:16.111Z,59.84
2022-12-26T01:08:19.627Z,59.75
2022-12-26T01:09:16.092Z,59.84
2022-12-26T01:10:16.108Z,59.75
2022-12-26T01:11:16.112Z,59.95
2022-12-26T01:12:16.061Z,59.75
2022-12-26T01:13:16.040Z,59.92
2022-12-26T01:14:16.044Z,59.75
2022-12-26T01:15:16.017Z,59.95
2022-12-26T01:16:16.088Z,59.95
2022-12-26T01:17:15.992Z,59.84
2022-12-26T01:18:15.988Z,59.84
2022-12-26T01:19:16.018Z,60.05
2022-12-26T01:20:15.960Z,59.84
2022-12-26T01:21:15.945Z,59.95
2022-12-26T01:22:15.972Z,60.15
2022-12-26T01:23:15.945Z,59.84
2022-12-26T01:24:15.921Z,59.95
2022-12-26T01:25:15.911Z,59.95
2022-12-26T01:26:20.095Z,59.95
2022-12-26T01:27:15.889Z,60.15
2022-12-26T01:28:15.912Z,60.05
2022-12-26T01:29:15.862Z,59.84
2022-12-26T01:30:15.854Z,59.95
2022-12-26T01:31:15.927Z,59.84
2022-12-26T01:32:15.844Z,59.84
2022-12-26T01:33:15.821Z,60.05
2022-12-26T01:34:15.842Z,59.95
2022-12-26T01:35:15.801Z,59.95
2022-12-26T01:36:15.802Z,59.95
2022-12-26T01:37:15.781Z,59.95
2022-12-26T01:38:15.766Z,59.95
2022-12-26T01:39:15.763Z,60.05
2022-12-26T01:40:15.779Z,59.84
2022-12-26T01:41:15.739Z,59.75
2022-12-26T01:42:15.726Z,59.75
2022-12-26T01:43:15.719Z,59.84
2022-12-26T01:44:15.702Z,59.84
2022-12-26T01:45:15.699Z,60.05
2022-12-26T01:46:15.733Z,59.84
2022-12-26T01:47:15.674Z,59.75
2022-12-26T01:48:15.663Z,59.84
2022-12-26T01:49:15.655Z,59.95
2022-12-26T01:50:15.633Z,59.84
2022-12-26T01:51:15.635Z,59.84
2022-12-26T01:52:15.663Z,59.95
2022-12-26T01:53:15.604Z,59.84
2022-12-26T01:54:39.703Z,59.95
2022-12-26T01:55:15.586Z,59.84
2022-12-26T01:56:15.575Z,59.84
2022-12-26T01:57:15.566Z,60.05
2022-12-26T01:58:15.595Z,59.84
2022-12-26T01:59:15.538Z,59.84
2022-12-26T02:00:15.544Z,59.84
2022-12-26T02:01:15.626Z,60.05
2022-12-26T02:02:15.657Z,59.84
2022-12-26T02:03:15.519Z,59.95
2022-12-26T02:04:15.526Z,59.95
2022-12-26T02:05:15.479Z,59.84
2022-12-26T02:06:15.471Z,60.05
2022-12-26T02:07:15.473Z,59.84
2022-12-26T02:08:15.443Z,60.05
2022-12-26T02:09:15.435Z,59.95
2022-12-26T02:10:15.458Z,59.95
2022-12-26T02:11:15.412Z,59.95
2022-12-26T02:12:35.104Z,59.84
2022-12-26T02:13:15.387Z,59.75
2022-12-26T02:14:15.380Z,59.84
2022-12-26T02:15:15.377Z,59.95
2022-12-26T02:16:15.442Z,59.95
2022-12-26T02:17:15.343Z,60.05
2022-12-26T02:18:15.336Z,59.95
2022-12-26T02:19:15.324Z,60.15
2022-12-26T02:20:15.311Z,59.84
2022-12-26T02:21:15.307Z,60.05
2022-12-26T02:22:15.326Z,59.84
2022-12-26T02:23:15.280Z,59.75
2022-12-26T02:24:15.283Z,59.95
2022-12-26T02:25:15.264Z,59.84
2022-12-26T02:26:15.248Z,59.95
2022-12-26T02:27:15.239Z,60.05
2022-12-26T02:28:15.283Z,60.15
2022-12-26T02:29:15.217Z,60.15
2022-12-26T02:30:15.219Z,60.05
2022-12-26T02:31:15.190Z,60.15
2022-12-26T02:32:15.308Z,60.05
2022-12-26T02:33:15.176Z,60.05
2022-12-26T02:34:15.445Z,59.95
2022-12-26T02:35:15.153Z,59.95
2022-12-26T02:36:15.162Z,59.95
2022-12-26T02:37:15.132Z,60.05
2022-12-26T02:38:15.120Z,60.05
2022-12-26T02:39:44.443Z,60.05
2022-12-26T02:40:15.141Z,59.95
2022-12-26T02:41:15.091Z,60.02
2022-12-26T02:42:15.076Z,59.92
2022-12-26T02:43:15.065Z,59.95
2022-12-26T02:44:15.061Z,59.72
2022-12-26T02:45:15.053Z,59.84
2022-12-26T02:46:15.160Z,60.02
2022-12-26T02:47:15.012Z,59.92
2022-12-26T02:48:15.009Z,59.82
2022-12-26T02:49:15.001Z,59.72
2022-12-26T02:50:14.992Z,59.92
2022-12-26T02:51:14.973Z,59.82
2022-12-26T02:52:14.998Z,59.92
2022-12-26T02:53:14.952Z,59.82
2022-12-26T02:54:14.945Z,59.92
2022-12-26T02:55:14.943Z,59.82
2022-12-26T02:56:14.932Z,59.72
2022-12-26T02:57:14.908Z,59.82
2022-12-26T02:58:14.934Z,59.62
2022-12-26T02:59:14.900Z,59.62
2022-12-26T03:00:14.875Z,59.72
2022-12-26T03:01:14.961Z,59.72
2022-12-26T03:02:15.123Z,59.52
2022-12-26T03:03:14.966Z,59.72
2022-12-26T03:04:14.874Z,59.72
2022-12-26T03:05:14.821Z,59.72
2022-12-26T03:06:14.811Z,59.72
2022-12-26T03:07:14.797Z,59.52
2022-12-26T03:08:14.791Z,59.52
2022-12-26T03:09:14.780Z,59.72
2022-12-26T03:10:14.804Z,59.62
2022-12-26T03:11:14.754Z,59.62
2022-12-26T03:12:14.743Z,59.52
2022-12-26T03:13:14.738Z,59.52
2022-12-26T03:14:14.722Z,59.52
2022-12-26T03:15:14.714Z,59.52
2022-12-26T03:16:14.771Z,59.72
2022-12-26T03:17:14.704Z,59.52
2022-12-26T03:18:14.682Z,59.52
2022-12-26T03:19:14.666Z,59.72
2022-12-26T03:20:14.660Z,59.42
2022-12-26T03:21:14.655Z,59.62
2022-12-26T03:22:14.667Z,59.42
2022-12-26T03:23:14.623Z,59.42
2022-12-26T03:24:14.624Z,59.52
2022-12-26T03:25:14.598Z,59.42
2022-12-26T03:26:14.592Z,59.52
2022-12-26T03:27:14.584Z,59.52
2022-12-26T03:28:14.600Z,59.52
2022-12-26T03:29:18.810Z,59.52
2022-12-26T03:30:14.552Z,59.52
2022-12-26T03:31:14.613Z,59.62
2022-12-26T03:32:14.528Z,59.72
2022-12-26T03:33:14.513Z,59.82
2022-12-26T03:34:14.554Z,59.62
2022-12-26T03:35:14.497Z,59.62
2022-12-26T03:36:14.496Z,59.52
2022-12-26T03:37:14.480Z,59.62
2022-12-26T03:38:14.468Z,59.62
2022-12-26T03:39:14.447Z,59.62
2022-12-26T03:40:14.506Z,59.72
2022-12-26T03:41:14.433Z,59.52
2022-12-26T03:42:14.435Z,59.52
2022-12-26T03:43:14.419Z,59.72
2022-12-26T03:44:14.399Z,59.62
2022-12-26T03:45:14.396Z,59.72
2022-12-26T03:46:14.486Z,59.72
2022-12-26T03:47:14.357Z,59.52
2022-12-26T03:48:14.357Z,59.62
2022-12-26T03:49:14.340Z,59.72
2022-12-26T03:50:14.342Z,59.62
2022-12-26T03:51:14.329Z,59.62
2022-12-26T03:52:14.330Z,59.72
2022-12-26T03:53:14.309Z,59.62
2022-12-26T03:54:14.285Z,59.72
2022-12-26T03:55:14.283Z,59.72
2022-12-26T03:56:14.282Z,59.72
2022-12-26T03:57:14.271Z,59.92
2022-12-26T03:58:14.270Z,59.92
2022-12-26T03:59:14.287Z,59.92
2022-12-26T04:00:14.227Z,59.72
2022-12-26T04:01:14.369Z,59.92
2022-12-26T04:02:14.386Z,59.92
2022-12-26T04:03:14.236Z,60.02
2022-12-26T04:04:14.218Z,59.82
2022-12-26T04:05:14.169Z,59.82
2022-12-26T04:06:14.175Z,60.02
2022-12-26T04:07:14.153Z,59.92
2022-12-26T04:08:18.453Z,59.72
2022-12-26T04:09:14.133Z,59.92
2022-12-26T04:10:14.161Z,59.92
2022-12-26T04:11:14.119Z,59.92
2022-12-26T04:12:14.089Z,59.92
2022-12-26T04:13:14.081Z,59.82
2022-12-26T04:14:14.070Z,59.82
2022-12-26T04:15:14.066Z,60.02
2022-12-26T04:16:14.114Z,60.02
2022-12-26T04:17:14.046Z,60.02
2022-12-26T04:18:14.026Z,60.02
2022-12-26T04:19:14.034Z,60.12
2022-12-26T04:20:14.015Z,59.82
2022-12-26T04:21:13.998Z,59.82
2022-12-26T04:22:14.015Z,59.72
2022-12-26T04:23:13.976Z,60.12
2022-12-26T04:24:13.968Z,59.92
2022-12-26T04:25:13.953Z,60.02
2022-12-26T04:26:13.948Z,60.12
2022-12-26T04:27:13.930Z,60.22
2022-12-26T04:28:13.937Z,60.02
2022-12-26T04:29:13.915Z,60.02
2022-12-26T04:30:13.891Z,59.92
2022-12-26T04:31:13.974Z,60.02
2022-12-26T04:32:13.882Z,60.22
2022-12-26T04:33:13.875Z,60.22
2022-12-26T04:34:13.890Z,60.12
2022-12-26T04:35:13.845Z,60.02
2022-12-26T04:36:13.854Z,59.92
2022-12-26T04:37:13.818Z,60.22
2022-12-26T04:38:13.806Z,60.32
2022-12-26T04:39:13.803Z,60.32
2022-12-26T04:40:13.830Z,60.32
2022-12-26T04:41:13.778Z,60.22
2022-12-26T04:42:13.774Z,60.32
2022-12-26T04:43:49.191Z,60.12
2022-12-26T04:44:13.744Z,60.22
2022-12-26T04:45:13.733Z,60.02
2022-12-26T04:46:13.789Z,60.22
2022-12-26T04:47:13.720Z,60.02
2022-12-26T04:48:13.700Z,59.92
2022-12-26T04:49:13.690Z,60.12
2022-12-26T04:50:13.681Z,60.32
2022-12-26T04:51:13.674Z,60.22
2022-12-26T04:52:13.705Z,60.12
2022-12-26T04:53:13.640Z,60.22
2022-12-26T04:54:13.642Z,60.42
2022-12-26T04:55:13.631Z,60.42
2022-12-26T04:56:13.615Z,60.52
2022-12-26T04:57:13.625Z,60.32
2022-12-26T04:58:13.637Z,60.42
2022-12-26T04:59:13.573Z,60.32
2022-12-26T05:00:13.577Z,60.42
2022-12-26T05:01:13.690Z,60.32
2022-12-26T05:02:13.649Z,60.32
2022-12-26T05:03:18.572Z,60.42
2022-12-26T05:04:13.559Z,60.63
2022-12-26T05:05:13.529Z,60.52
2022-12-26T05:06:13.533Z,60.63
2022-12-26T05:07:13.495Z,60.63
2022-12-26T05:08:13.478Z,60.63
2022-12-26T05:09:13.467Z,60.63
2022-12-26T05:10:13.490Z,60.52
2022-12-26T05:11:13.450Z,60.63
2022-12-26T05:12:13.447Z,60.72
2022-12-26T05:13:13.430Z,60.72
2022-12-26T05:14:13.415Z,60.63
2022-12-26T05:15:13.402Z,60.52
2022-12-26T05:16:13.489Z,60.72
2022-12-26T05:17:13.383Z,60.63
2022-12-26T05:18:13.382Z,60.72
2022-12-26T05:19:13.358Z,60.63
2022-12-26T05:20:13.356Z,60.72
2022-12-26T05:21:13.342Z,60.93
2022-12-26T05:22:13.355Z,60.63
2022-12-26T05:23:13.324Z,60.72
2022-12-26T05:24:13.330Z,60.83
2022-12-26T05:25:13.302Z,60.72
2022-12-26T05:26:13.288Z,60.72
2022-12-26T05:27:13.277Z,60.72
2022-12-26T05:28:13.287Z,60.63
2022-12-26T05:29:13.253Z,60.72
2022-12-26T05:30:13.257Z,60.83
2022-12-26T05:31:13.290Z,60.83
2022-12-26T05:32:13.228Z,60.63
2022-12-26T05:33:13.217Z,60.72
2022-12-26T05:34:13.235Z,60.72
2022-12-26T05:35:13.191Z,60.72
2022-12-26T05:36:13.181Z,60.72
2022-12-26T05:37:13.173Z,60.52
2022-12-26T05:38:13.161Z,60.63
2022-12-26T05:39:13.164Z,60.52
2022-12-26T05:40:13.171Z,60.63
2022-12-26T05:41:13.136Z,60.52
2022-12-26T05:42:13.119Z,60.63
2022-12-26T05:43:13.095Z,60.72
2022-12-26T05:44:13.088Z,60.72
2022-12-26T05:45:13.083Z,60.63
2022-12-26T05:46:13.181Z,60.52
2022-12-26T05:47:13.062Z,60.63
2022-12-26T05:48:13.056Z,60.42
2022-12-26T05:49:13.045Z,60.52
2022-12-26T05:50:13.028Z,60.63
2022-12-26T05:51:13.020Z,60.83
2022-12-26T05:52:13.041Z,60.72
2022-12-26T05:53:12.997Z,60.63
2022-12-26T05:54:12.997Z,60.72
2022-12-26T05:55:12.979Z,60.63
2022-12-26T05:56:12.954Z,60.72
2022-12-26T05:57:12.972Z,60.63
2022-12-26T05:58:12.971Z,60.72
2022-12-26T05:59:12.925Z,60.72
2022-12-26T06:00:12.915Z,60.63
2022-12-26T06:01:12.996Z,60.63
2022-12-26T06:02:13.007Z,60.52
2022-12-26T06:03:12.975Z,60.52
2022-12-26T06:04:12.906Z,60.63
2022-12-26T06:05:12.869Z,60.52
2022-12-26T06:06:12.862Z,60.42
2022-12-26T06:07:12.837Z,60.42
2022-12-26T06:08:12.829Z,60.42
2022-12-26T06:09:12.823Z,60.32
2022-12-26T06:10:12.838Z,60.32
2022-12-26T06:11:12.800Z,60.32
2022-12-26T06:12:12.792Z,60.32
2022-12-26T06:13:12.778Z,60.42
2022-12-26T06:14:12.762Z,60.32
2022-12-26T06:15:12.834Z,60.32
2022-12-26T06:16:12.913Z,60.32
2022-12-26T06:17:12.731Z,60.22
2022-12-26T06:18:12.721Z,60.32
2022-12-26T06:19:12.717Z,60.22
2022-12-26T06:20:12.794Z,60.12
2022-12-26T06:21:12.702Z,60.22
2022-12-26T06:22:12.882Z,60.32
2022-12-26T06:23:12.681Z,60.22
2022-12-26T06:24:12.655Z,60.22
2022-12-26T06:25:12.649Z,60.22
2022-12-26T06:26:12.790Z,60.12
2022-12-26T06:27:12.631Z,60.22
2022-12-26T06:28:12.650Z,60.22
2022-12-26T06:29:12.594Z,60.22
2022-12-26T06:30:12.591Z,60.22
2022-12-26T06:31:12.643Z,60.12
2022-12-26T06:32:12.566Z,60.22
2022-12-26T06:33:12.563Z,60.22
2022-12-26T06:34:12.571Z,60.22
2022-12-26T06:35:12.534Z,60.32
2022-12-26T06:36:12.526Z,60.22
2022-12-26T06:37:12.521Z,60.22
2022-12-26T06:38:12.514Z,60.22
2022-12-26T06:39:12.516Z,60.22
2022-12-26T06:40:12.579Z,60.22
2022-12-26T06:41:12.482Z,60.22
2022-12-26T06:42:12.465Z,60.22
2022-12-26T06:43:12.459Z,60.32
2022-12-26T06:44:17.941Z,60.32
2022-12-26T06:45:12.451Z,60.32
2022-12-26T06:46:12.444Z,60.22
2022-12-26T06:47:12.539Z,60.32
2022-12-26T06:48:12.400Z,60.32
2022-12-26T06:49:12.389Z,60.22
2022-12-26T06:50:12.371Z,60.32
2022-12-26T06:51:12.375Z,60.32
2022-12-26T06:52:12.380Z,60.32
2022-12-26T06:53:12.376Z,60.22
2022-12-26T06:54:12.335Z,60.32
2022-12-26T06:55:12.344Z,60.32
2022-12-26T06:56:12.314Z,60.22
2022-12-26T06:57:12.303Z,60.32
2022-12-26T06:58:12.336Z,60.22
2022-12-26T06:59:12.282Z,60.32
2022-12-26T07:00:12.279Z,60.32
2022-12-26T07:01:12.391Z,60.32
2022-12-26T07:02:12.371Z,60.32
2022-12-26T07:03:12.321Z,60.32
2022-12-26T07:04:12.250Z,60.22
2022-12-26T07:05:12.216Z,60.22
2022-12-26T07:06:12.202Z,60.22
2022-12-26T07:07:12.213Z,60.42
2022-12-26T07:08:12.182Z,60.42
2022-12-26T07:09:12.165Z,60.32
2022-12-26T07:10:12.191Z,60.32
2022-12-26T07:11:12.145Z,60.32
2022-12-26T07:12:12.129Z,60.32
2022-12-26T07:13:12.137Z,60.32
2022-12-26T07:14:12.117Z,60.32
2022-12-26T07:15:12.100Z,60.22
2022-12-26T07:16:12.137Z,60.32
2022-12-26T07:17:12.100Z,60.32
2022-12-26T07:18:12.073Z,60.32
2022-12-26T07:19:12.066Z,60.22
2022-12-26T07:20:12.045Z,60.32
2022-12-26T07:21:12.038Z,60.32
2022-12-26T07:22:12.072Z,60.42
2022-12-26T07:23:12.019Z,60.32
2022-12-26T07:24:12.011Z,60.32
2022-12-26T07:25:12.000Z,60.32
2022-12-26T07:26:11.987Z,60.32
2022-12-26T07:27:11.971Z,60.32
2022-12-26T07:28:11.988Z,60.32
2022-12-26T07:29:11.959Z,60.42
2022-12-26T07:30:11.942Z,60.32
2022-12-26T07:31:11.993Z,60.42
2022-12-26T07:32:11.960Z,60.63
2022-12-26T07:33:11.907Z,60.52
2022-12-26T07:34:11.938Z,60.63
2022-12-26T07:35:11.898Z,60.42
2022-12-26T07:36:11.872Z,60.42
2022-12-26T07:37:11.858Z,60.52
2022-12-26T07:38:11.850Z,60.52
2022-12-26T07:39:11.843Z,60.42
2022-12-26T07:40:11.867Z,60.32
2022-12-26T07:41:11.825Z,60.42
2022-12-26T07:42:11.816Z,60.42
2022-12-26T07:43:11.805Z,60.52
2022-12-26T07:44:11.792Z,60.42
2022-12-26T07:45:11.786Z,60.52
2022-12-26T07:46:11.838Z,60.32
2022-12-26T07:47:11.751Z,60.32
2022-12-26T07:48:11.738Z,60.42
2022-12-26T07:49:11.737Z,60.42
2022-12-26T07:50:11.716Z,60.32
2022-12-26T07:51:11.706Z,60.32
2022-12-26T07:52:11.731Z,60.32
2022-12-26T07:53:11.688Z,60.52
2022-12-26T07:54:12.119Z,60.42
2022-12-26T07:55:11.663Z,60.42
2022-12-26T07:56:11.660Z,60.32
2022-12-26T07:58:11.676Z,60.52
2022-12-26T07:59:11.623Z,60.42
2022-12-26T08:00:11.607Z,60.42
2022-12-26T08:01:11.788Z,60.42
2022-12-26T08:02:11.941Z,60.32
2022-12-26T08:03:11.740Z,60.42
2022-12-26T08:04:11.603Z,60.32
2022-12-26T08:05:11.562Z,60.42
2022-12-26T08:06:11.589Z,60.52
2022-12-26T08:07:11.571Z,60.39
2022-12-26T08:08:11.523Z,60.29
2022-12-26T08:09:11.553Z,60.29
2022-12-26T08:10:11.600Z,60.29
2022-12-26T08:11:11.483Z,60.29
2022-12-26T08:12:11.503Z,60.39
2022-12-26T08:13:11.469Z,60.39
2022-12-26T08:14:11.456Z,60.29
2022-12-26T08:15:11.441Z,60.39
2022-12-26T08:16:11.474Z,60.39
2022-12-26T08:17:11.482Z,60.39
2022-12-26T08:18:11.416Z,60.29
2022-12-26T08:19:11.447Z,60.39
2022-12-26T08:20:11.523Z,60.49
2022-12-26T08:21:11.384Z,60.49
2022-12-26T08:22:11.405Z,60.60
2022-12-26T08:23:11.362Z,60.49
2022-12-26T08:24:11.351Z,60.02
2022-12-26T08:25:12.480Z,59.92
2022-12-26T08:26:11.327Z,59.95
2022-12-26T08:27:11.327Z,59.84
2022-12-26T08:28:11.337Z,59.84
2022-12-26T08:29:11.304Z,59.75
2022-12-26T08:30:11.279Z,59.77
2022-12-26T08:31:11.277Z,59.77
2022-12-26T08:32:11.268Z,59.77
2022-12-26T08:33:11.256Z,59.67
2022-12-26T08:34:11.273Z,59.57
2022-12-26T08:35:11.224Z,59.47
2022-12-26T08:36:11.226Z,59.37
2022-12-26T08:37:11.224Z,59.17
2022-12-26T08:38:11.188Z,59.17
2022-12-26T08:39:11.185Z,59.17
2022-12-26T08:40:12.780Z,59.07
2022-12-26T08:41:11.165Z,58.97
2022-12-26T08:42:11.152Z,58.87
2022-12-26T08:43:30.164Z,58.87
2022-12-26T08:44:27.871Z,58.76
2022-12-26T08:45:11.131Z,58.76
2022-12-26T08:46:11.185Z,58.67
2022-12-26T08:47:11.099Z,58.67
2022-12-26T08:48:11.095Z,58.56
2022-12-26T08:49:11.085Z,58.47
2022-12-26T08:50:11.086Z,58.47
2022-12-26T08:51:11.060Z,58.36
2022-12-26T08:52:11.072Z,58.36
2022-12-26T08:53:11.037Z,58.26
2022-12-26T08:54:11.026Z,58.26
2022-12-26T08:55:11.013Z,58.26
2022-12-26T08:56:10.997Z,58.16
2022-12-26T08:57:11.001Z,58.16
2022-12-26T08:58:11.071Z,58.06
2022-12-26T08:59:10.980Z,58.06
2022-12-26T09:00:10.957Z,58.06
2022-12-26T09:01:11.105Z,58.06
2022-12-26T09:02:11.120Z,57.96
2022-12-26T09:03:10.938Z,58.09
2022-12-26T09:04:10.953Z,57.98
2022-12-26T09:05:10.910Z,57.98
2022-12-26T09:06:10.889Z,57.98
2022-12-26T09:07:10.874Z,57.98
2022-12-26T09:08:10.875Z,57.98
2022-12-26T09:09:10.858Z,57.89
2022-12-26T09:10:10.885Z,57.89
2022-12-26T09:11:10.851Z,57.89
2022-12-26T09:12:10.841Z,57.78
2022-12-26T09:13:10.813Z,57.78
2022-12-26T09:14:10.807Z,57.78
2022-12-26T09:15:10.802Z,57.78
2022-12-26T09:16:10.812Z,57.78
2022-12-26T09:17:10.851Z,57.68
2022-12-26T09:18:10.763Z,57.68
2022-12-26T09:19:10.752Z,57.68
2022-12-26T09:20:10.737Z,57.58
2022-12-26T09:21:10.747Z,57.58
2022-12-26T09:22:10.748Z,57.58
2022-12-26T09:23:10.735Z,57.56
2022-12-26T09:24:10.691Z,57.56
2022-12-26T09:25:10.687Z,57.56
2022-12-26T09:26:10.678Z,57.56
2022-12-26T09:27:10.670Z,57.56
2022-12-26T09:28:10.682Z,57.65
2022-12-26T09:29:10.659Z,57.63
2022-12-26T09:30:10.627Z,57.63
2022-12-26T09:31:10.648Z,57.63
2022-12-26T09:32:10.607Z,57.63
2022-12-26T09:33:10.598Z,57.63
2022-12-26T09:34:10.629Z,57.63
2022-12-26T09:35:10.584Z,57.63
2022-12-26T09:36:14.477Z,57.63
2022-12-26T09:37:10.550Z,57.63
2022-12-26T09:38:10.542Z,57.63
2022-12-26T09:39:10.530Z,57.63
2022-12-26T09:40:10.565Z,57.63
2022-12-26T09:41:10.509Z,57.63
2022-12-26T09:42:10.511Z,57.63
2022-12-26T09:43:10.492Z,57.63
2022-12-26T09:44:10.483Z,57.63
2022-12-26T09:45:10.460Z,57.63
2022-12-26T09:46:10.516Z,57.73
2022-12-26T09:47:10.459Z,57.63
2022-12-26T09:48:10.431Z,57.73
2022-12-26T09:49:10.428Z,57.63
2022-12-26T09:50:10.408Z,57.73
2022-12-26T09:51:10.403Z,57.73
2022-12-26T09:52:10.429Z,57.73
2022-12-26T09:53:10.375Z,57.73
2022-12-26T09:54:10.372Z,57.73
2022-12-26T09:55:10.356Z,57.83
2022-12-26T09:56:18.248Z,57.73
2022-12-26T09:57:14.843Z,57.83
2022-12-26T09:58:10.344Z,57.73
2022-12-26T09:59:10.316Z,57.73
2022-12-26T10:00:10.308Z,57.83
2022-12-26T10:01:10.450Z,57.83
2022-12-26T10:02:10.497Z,57.83
2022-12-26T10:03:10.272Z,57.83
2022-12-26T10:04:10.341Z,57.83
2022-12-26T10:05:10.297Z,57.83
2022-12-26T10:06:10.246Z,57.83
2022-12-26T10:07:10.233Z,57.93
2022-12-26T10:08:10.212Z,57.83
2022-12-26T10:09:10.204Z,57.83
2022-12-26T10:10:10.240Z,57.83
2022-12-26T10:11:10.181Z,57.83
2022-12-26T10:12:10.168Z,57.93
2022-12-26T10:13:10.160Z,57.93
2022-12-26T10:14:10.144Z,57.93
2022-12-26T10:15:10.144Z,57.93
2022-12-26T10:16:10.201Z,57.93
2022-12-26T10:17:10.121Z,57.93
2022-12-26T10:18:10.140Z,57.93
2022-12-26T10:19:10.098Z,57.93
2022-12-26T10:20:10.081Z,57.93
2022-12-26T10:21:10.087Z,57.93
2022-12-26T10:22:10.085Z,57.93
2022-12-26T10:23:10.049Z,57.93
2022-12-26T10:24:10.038Z,57.93
2022-12-26T10:25:10.032Z,57.93
2022-12-26T10:26:10.020Z,57.93
2022-12-26T10:27:10.006Z,57.93
2022-12-26T10:28:10.037Z,58.03
2022-12-26T10:29:09.992Z,57.90
2022-12-26T10:30:09.975Z,58.03
2022-12-26T10:31:10.025Z,57.90
2022-12-26T10:32:09.958Z,58.01
2022-12-26T10:33:09.944Z,58.01
2022-12-26T10:34:09.973Z,58.01
2022-12-26T10:35:09.918Z,58.01
2022-12-26T10:36:09.914Z,58.01
2022-12-26T10:37:09.910Z,58.01
2022-12-26T10:38:09.913Z,58.01
2022-12-26T10:39:09.890Z,58.01
2022-12-26T10:40:09.917Z,58.01
2022-12-26T10:41:09.855Z,58.01
2022-12-26T10:42:09.849Z,58.01
2022-12-26T10:43:09.834Z,58.01
2022-12-26T10:44:09.826Z,58.01
2022-12-26T10:45:09.817Z,58.01
2022-12-26T10:46:09.870Z,58.01
2022-12-26T10:47:09.794Z,58.01
2022-12-26T10:48:09.783Z,58.01
2022-12-26T10:49:09.779Z,58.01
2022-12-26T10:50:09.763Z,58.01
2022-12-26T10:51:09.752Z,58.01
2022-12-26T10:52:09.783Z,58.01
2022-12-26T10:53:09.734Z,58.11
2022-12-26T10:54:09.715Z,58.01
2022-12-26T10:55:29.542Z,58.11
2022-12-26T10:56:14.658Z,58.11
2022-12-26T10:57:09.691Z,58.11
2022-12-26T10:58:09.706Z,58.11
2022-12-26T10:59:09.663Z,58.11
2022-12-26T11:00:09.661Z,58.11
2022-12-26T11:01:09.681Z,58.11
2022-12-26T11:02:09.689Z,58.11
2022-12-26T11:03:09.786Z,58.11
2022-12-26T11:04:09.643Z,58.11
2022-12-26T11:05:21.532Z,58.11
2022-12-26T11:06:09.947Z,58.11
2022-12-26T11:07:09.575Z,58.11
2022-12-26T11:08:09.566Z,58.11
2022-12-26T11:09:09.566Z,58.11
2022-12-26T11:10:09.576Z,58.11
2022-12-26T11:11:09.551Z,58.01
2022-12-26T11:12:09.521Z,58.11
2022-12-26T11:13:09.510Z,58.11
2022-12-26T11:14:09.497Z,58.11
2022-12-26T11:15:09.496Z,58.11
2022-12-26T11:16:09.592Z,58.11
2022-12-26T11:17:09.471Z,58.11
2022-12-26T11:18:09.455Z,58.11
2022-12-26T11:19:09.447Z,58.11
2022-12-26T11:20:09.447Z,58.11
2022-12-26T11:21:12.630Z,58.11
2022-12-26T11:22:09.464Z,58.01
2022-12-26T11:23:09.407Z,58.11
2022-12-26T11:24:09.400Z,58.11
2022-12-26T11:25:09.390Z,58.01
2022-12-26T11:26:09.376Z,58.01
2022-12-26T11:27:12.737Z,58.11
2022-12-26T11:28:09.380Z,58.11
2022-12-26T11:29:09.340Z,58.11
2022-12-26T11:30:09.330Z,58.11
2022-12-26T11:31:09.352Z,58.11
2022-12-26T11:32:09.313Z,58.01
2022-12-26T11:33:14.142Z,58.01
2022-12-26T11:34:09.319Z,58.01
2022-12-26T11:35:09.289Z,58.01
2022-12-26T11:36:09.265Z,58.01
2022-12-26T11:37:09.270Z,58.01
2022-12-26T11:38:09.244Z,58.01
2022-12-26T11:39:09.243Z,58.01
2022-12-26T11:40:09.265Z,58.11
2022-12-26T11:41:09.209Z,58.01
2022-12-26T11:42:09.210Z,58.01
2022-12-26T11:43:09.197Z,58.11
2022-12-26T11:44:09.186Z,58.11
2022-12-26T11:45:09.174Z,58.11
2022-12-26T11:46:09.217Z,58.11
2022-12-26T11:47:09.149Z,58.11
2022-12-26T11:48:09.141Z,58.11
2022-12-26T11:49:09.127Z,58.11
2022-12-26T11:50:09.120Z,58.21
2022-12-26T11:51:09.110Z,58.21
2022-12-26T11:52:09.117Z,58.21
2022-12-26T11:53:09.085Z,58.21
2022-12-26T11:54:09.079Z,58.31
2022-12-26T11:55:09.073Z,58.31
2022-12-26T11:56:09.045Z,58.31
2022-12-26T11:57:09.039Z,58.31
2022-12-26T11:58:09.058Z,58.41
2022-12-26T11:59:09.030Z,58.41
2022-12-26T12:00:09.019Z,58.41
2022-12-26T12:01:09.009Z,58.21
2022-12-26T12:02:09.036Z,58.21
2022-12-26T12:03:09.014Z,58.11
2022-12-26T12:04:09.009Z,57.98
2022-12-26T12:05:09.044Z,57.98
2022-12-26T12:06:08.940Z,57.98
2022-12-26T12:07:08.927Z,57.98
2022-12-26T12:08:08.926Z,57.98
2022-12-26T12:09:08.907Z,57.98
2022-12-26T12:10:08.920Z,57.98
2022-12-26T12:11:08.893Z,57.88
2022-12-26T12:12:08.882Z,57.98
2022-12-26T12:13:08.867Z,58.07
2022-12-26T12:14:08.857Z,58.18
2022-12-26T12:15:08.845Z,58.21
2022-12-26T12:16:08.898Z,58.31
2022-12-26T12:17:08.827Z,58.31
2022-12-26T12:18:08.815Z,58.41
2022-12-26T12:19:08.799Z,58.41
2022-12-26T12:20:08.799Z,58.31
2022-12-26T12:21:08.778Z,58.28
2022-12-26T12:22:08.808Z,58.07
2022-12-26T12:23:08.764Z,58.07
2022-12-26T12:24:08.745Z,58.07
2022-12-26T12:25:08.741Z,58.07
2022-12-26T12:26:08.727Z,58.18
2022-12-26T12:27:08.717Z,58.18
2022-12-26T12:28:08.727Z,58.07
2022-12-26T12:29:08.714Z,58.07
2022-12-26T12:30:08.689Z,58.07
2022-12-26T12:31:08.672Z,58.07
2022-12-26T12:32:08.694Z,58.07
2022-12-26T12:33:08.665Z,58.07
2022-12-26T12:34:08.666Z,57.98
2022-12-26T12:35:08.625Z,58.07
2022-12-26T12:36:08.652Z,58.07
2022-12-26T12:37:08.613Z,58.05
2022-12-26T12:38:08.601Z,58.07
2022-12-26T12:39:08.583Z,58.05
2022-12-26T12:40:08.607Z,58.05
2022-12-26T12:41:08.560Z,57.98
2022-12-26T12:42:08.560Z,58.07
2022-12-26T12:43:08.555Z,58.18
2022-12-26T12:44:08.539Z,58.28
2022-12-26T12:45:08.528Z,58.38
2022-12-26T12:46:08.650Z,58.41
2022-12-26T12:47:08.505Z,58.51
2022-12-26T12:48:08.492Z,58.61
2022-12-26T12:49:08.480Z,58.61
2022-12-26T12:50:08.471Z,58.61
2022-12-26T12:51:08.459Z,58.61
2022-12-26T12:52:08.468Z,58.71
2022-12-26T12:53:08.436Z,58.61